Berwick, Canada
Current Conditions -  °F | °C
As of 1:00 PM on Saturday 25 Oct 2014 (Local Time) from CYZX Reporting Station
Drizzle Drizzle  
Wind Chill: 45°   Ceiling: 1100
Heat Index: 48°   Visibility: 5mi
Dew Point: 46°   Wind: 8mph
Humidity: 93%   Direction: 310°NW
Pressure: 29.54"   Gusts: NA
Location:  45.03°N, 64.73°W
Report Text: CYZX 251600Z 31007KT 5SM -DZ BR OVC011 09/08 A2954 RMK SC8 WNDY HILL UNAVBL CIG RAG SLP004
Loading
Personal Weather Stations






























Interactive Weather Map
Tropical Storm Tracking
New forecast layout! Learn more

10-Day Weather Forecast

Advertisements
Track Severe Weather on mobile